sensor_id;sensor_type;location;lat;lon;timestamp;pressure;altitude;pressure_sealevel;temperature;humidity
21960;BME280;11144;43.030;25.108;2023-03-14T00:01:10;99448.44;;;1.63;100.00
21960;BME280;11144;43.030;25.108;2023-03-14T00:02:43;99448.41;;;1.60;100.00
21960;BME280;11144;43.030;25.108;2023-03-14T00:04:16;99438.88;;;1.60;100.00
21960;BME280;11144;43.030;25.108;2023-03-14T00:05:50;99444.94;;;1.58;100.00
21960;BME280;11144;43.030;25.108;2023-03-14T00:07:23;99442.34;;;1.59;100.00
21960;BME280;11144;43.030;25.108;2023-03-14T00:08:57;99448.44;;;1.55;100.00
21960;BME280;11144;43.030;25.108;2023-03-14T00:10:30;99444.94;;;1.55;100.00
21960;BME280;11144;43.030;25.108;2023-03-14T00:12:04;99437.13;;;1.53;100.00
21960;BME280;11144;43.030;25.108;2023-03-14T00:13:39;99424.94;;;1.45;100.00
21960;BME280;11144;43.030;25.108;2023-03-14T00:15:12;99432.78;;;1.51;100.00
21960;BME280;11144;43.030;25.108;2023-03-14T00:16:47;99427.56;;;1.48;100.00
21960;BME280;11144;43.030;25.108;2023-03-14T00:18:20;99429.28;;;1.40;100.00
21960;BME280;11144;43.030;25.108;2023-03-14T00:19:54;99431.88;;;1.37;100.00
21960;BME280;11144;43.030;25.108;2023-03-14T00:21:27;99421.44;;;1.32;100.00
21960;BME280;11144;43.030;25.108;2023-03-14T00:23:00;99425.78;;;1.27;100.00
21960;BME280;11144;43.030;25.108;2023-03-14T00:24:34;99427.53;;;1.24;100.00
21960;BME280;11144;43.030;25.108;2023-03-14T00:26:08;99430.13;;;1.24;100.00
21960;BME280;11144;43.030;25.108;2023-03-14T00:27:42;99416.22;;;1.22;100.00
21960;BME280;11144;43.030;25.108;2023-03-14T00:29:17;99416.25;;;1.25;100.00
21960;BME280;11144;43.030;25.108;2023-03-14T00:30:50;99418.84;;;1.28;100.00
21960;BME280;11144;43.030;25.108;2023-03-14T00:32:25;99417.13;;;1.33;100.00
21960;BME280;11144;43.030;25.108;2023-03-14T00:33:58;99411.06;;;1.37;100.00
21960;BME280;11144;43.030;25.108;2023-03-14T00:35:30;99411.94;;;1.39;100.00
21960;BME280;11144;43.030;25.108;2023-03-14T00:37:04;99414.53;;;1.39;100.00
21960;BME280;11144;43.030;25.108;2023-03-14T00:38:38;99405.84;;;1.40;100.00
21960;BME280;11144;43.030;25.108;2023-03-14T00:40:12;99394.56;;;1.32;100.00
21960;BME280;11144;43.030;25.108;2023-03-14T00:41:45;99409.34;;;1.39;100.00
21960;BME280;11144;43.030;25.108;2023-03-14T00:43:20;99406.72;;;1.39;100.00
21960;BME280;11144;43.030;25.108;2023-03-14T00:44:54;99399.75;;;1.29;100.00
21960;BME280;11144;43.030;25.108;2023-03-14T00:46:27;99398.88;;;1.25;100.00
21960;BME280;11144;43.030;25.108;2023-03-14T00:48:02;99400.59;;;1.19;100.00
21960;BME280;11144;43.030;25.108;2023-03-14T00:49:35;99407.53;;;1.15;100.00
21960;BME280;11144;43.030;25.108;2023-03-14T00:51:09;99411.84;;;1.12;100.00
21960;BME280;11144;43.030;25.108;2023-03-14T00:52:47;99404.91;;;1.08;100.00
21960;BME280;11144;43.030;25.108;2023-03-14T00:54:21;99404.91;;;1.08;100.00
21960;BME280;11144;43.030;25.108;2023-03-14T00:55:54;99397.94;;;1.04;100.00
21960;BME280;11144;43.030;25.108;2023-03-14T00:57:27;99388.41;;;1.03;100.00
21960;BME280;11144;43.030;25.108;2023-03-14T00:59:00;99395.34;;;1.01;100.00
21960;BME280;11144;43.030;25.108;2023-03-14T01:00:33;99389.28;;;1.02;100.00
21960;BME280;11144;43.030;25.108;2023-03-14T01:02:06;99394.50;;;1.02;100.00
21960;BME280;11144;43.030;25.108;2023-03-14T01:03:41;99390.13;;;0.96;100.00
21960;BME280;11144;43.030;25.108;2023-03-14T01:05:14;99390.13;;;0.93;100.00
21960;BME280;11144;43.030;25.108;2023-03-14T01:06:47;99400.53;;;0.92;100.00
21960;BME280;11144;43.030;25.108;2023-03-14T01:08:20;99396.19;;;0.88;100.00
21960;BME280;11144;43.030;25.108;2023-03-14T01:09:53;99389.22;;;0.87;100.00
21960;BME280;11144;43.030;25.108;2023-03-14T01:11:27;99382.28;;;0.89;100.00
21960;BME280;11144;43.030;25.108;2023-03-14T01:13:02;99379.72;;;0.92;100.00
21960;BME280;11144;43.030;25.108;2023-03-14T01:14:35;99377.97;;;0.94;100.00
21960;BME280;11144;43.030;25.108;2023-03-14T01:16:10;99373.63;;;0.93;100.00
21960;BME280;11144;43.030;25.108;2023-03-14T01:17:44;99371.84;;;0.83;100.00
21960;BME280;11144;43.030;25.108;2023-03-14T01:19:18;99378.78;;;0.78;100.00
21960;BME280;11144;43.030;25.108;2023-03-14T01:20:52;99364.91;;;0.70;100.00
21960;BME280;11144;43.030;25.108;2023-03-14T01:22:24;99368.31;;;0.63;100.00
21960;BME280;11144;43.030;25.108;2023-03-14T01:23:58;99368.31;;;0.60;100.00
21960;BME280;11144;43.030;25.108;2023-03-14T01:25:32;99357.00;;;0.52;100.00
21960;BME280;11144;43.030;25.108;2023-03-14T01:27:05;99365.63;;;0.40;100.00
21960;BME280;11144;43.030;25.108;2023-03-14T01:28:39;99364.72;;;0.34;100.00
21960;BME280;11144;43.030;25.108;2023-03-14T01:30:12;99360.41;;;0.34;100.00
21960;BME280;11144;43.030;25.108;2023-03-14T01:31:45;99363.00;;;0.39;100.00
21960;BME280;11144;43.030;25.108;2023-03-14T01:33:19;99359.56;;;0.46;100.00
21960;BME280;11144;43.030;25.108;2023-03-14T01:34:53;99351.81;;;0.50;100.00
21960;BME280;11144;43.030;25.108;2023-03-14T01:36:26;99359.63;;;0.61;100.00
21960;BME280;11144;43.030;25.108;2023-03-14T01:38:04;99355.34;;;0.67;100.00
21960;BME280;11144;43.030;25.108;2023-03-14T01:39:38;99345.78;;;0.68;100.00
21960;BME280;11144;43.030;25.108;2023-03-14T01:41:15;99357.94;;;0.66;100.00
21960;BME280;11144;43.030;25.108;2023-03-14T01:42:54;99351.88;;;0.67;100.00
21960;BME280;11144;43.030;25.108;2023-03-14T01:44:28;99351.84;;;0.64;100.00
21960;BME280;11144;43.030;25.108;2023-03-14T01:48:03;99352.72;;;0.63;100.00
21960;BME280;11144;43.030;25.108;2023-03-14T01:49:37;99345.78;;;0.62;100.00
21960;BME280;11144;43.030;25.108;2023-03-14T01:51:19;99347.50;;;0.57;100.00
21960;BME280;11144;43.030;25.108;2023-03-14T01:52:53;99344.06;;;0.58;100.00
21960;BME280;11144;43.030;25.108;2023-03-14T01:54:30;99344.03;;;0.55;100.00
21960;BME280;11144;43.030;25.108;2023-03-14T01:56:07;99342.28;;;0.51;100.00
21960;BME280;11144;43.030;25.108;2023-03-14T01:57:44;99333.56;;;0.46;100.00
21960;BME280;11144;43.030;25.108;2023-03-14T01:59:19;99337.91;;;0.41;100.00
21960;BME280;11144;43.030;25.108;2023-03-14T02:00:52;99347.41;;;0.39;100.00
21960;BME280;11144;43.030;25.108;2023-03-14T02:02:26;99347.41;;;0.39;100.00
21960;BME280;11144;43.030;25.108;2023-03-14T02:04:03;99339.63;;;0.43;100.00
21960;BME280;11144;43.030;25.108;2023-03-14T02:05:39;99337.03;;;0.43;100.00
21960;BME280;11144;43.030;25.108;2023-03-14T02:07:24;99344.00;;;0.43;100.00
21960;BME280;11144;43.030;25.108;2023-03-14T02:09:09;99338.78;;;0.43;100.00
21960;BME280;11144;43.030;25.108;2023-03-14T02:10:44;99350.06;;;0.46;100.00
21960;BME280;11144;43.030;25.108;2023-03-14T02:12:19;99343.97;;;0.46;100.00
21960;BME280;11144;43.030;25.108;2023-03-14T02:14:17;99348.34;;;0.47;100.00
21960;BME280;11144;43.030;25.108;2023-03-14T02:16:03;99350.94;;;0.50;100.00
21960;BME280;11144;43.030;25.108;2023-03-14T02:17:54;99352.72;;;0.54;100.00
21960;BME280;11144;43.030;25.108;2023-03-14T02:19:52;99350.91;;;0.41;100.00
21960;BME280;11144;43.030;25.108;2023-03-14T02:21:50;99350.84;;;0.29;100.00
21960;BME280;11144;43.030;25.108;2023-03-14T02:23:35;99353.34;;;0.11;100.00
21960;BME280;11144;43.030;25.108;2023-03-14T02:25:12;99348.09;;;0.00;100.00
21960;BME280;11144;43.030;25.108;2023-03-14T02:27:08;99342.84;;;-0.05;100.00
21960;BME280;11144;43.030;25.108;2023-03-14T02:28:46;99350.63;;;-0.08;100.00
21960;BME280;11144;43.030;25.108;2023-03-14T02:30:21;99345.41;;;-0.11;100.00
21960;BME280;11144;43.030;25.108;2023-03-14T02:31:55;99351.44;;;-0.15;100.00
21960;BME280;11144;43.030;25.108;2023-03-14T02:33:28;99357.53;;;-0.13;100.00
21960;BME280;11144;43.030;25.108;2023-03-14T02:35:08;99366.16;;;-0.14;100.00
21960;BME280;11144;43.030;25.108;2023-03-14T02:36:42;99357.50;;;-0.16;100.00
21960;BME280;11144;43.030;25.108;2023-03-14T02:38:20;99361.00;;;-0.11;100.00
21960;BME280;11144;43.030;25.108;2023-03-14T02:39:55;99354.94;;;-0.10;100.00
21960;BME280;11144;43.030;25.108;2023-03-14T02:41:30;99359.31;;;-0.06;100.00
21960;BME280;11144;43.030;25.108;2023-03-14T02:43:08;99364.53;;;0.00;100.00
21960;BME280;11144;43.030;25.108;2023-03-14T02:44:49;99369.72;;;0.00;100.00
21960;BME280;11144;43.030;25.108;2023-03-14T02:46:24;99359.38;;;0.03;100.00
21960;BME280;11144;43.030;25.108;2023-03-14T02:48:02;99358.50;;;0.04;100.00
21960;BME280;11144;43.030;25.108;2023-03-14T02:49:38;99360.22;;;0.05;100.00
21960;BME280;11144;43.030;25.108;2023-03-14T02:51:12;99364.50;;;-0.03;100.00
21960;BME280;11144;43.030;25.108;2023-03-14T02:52:47;99357.59;;;-0.01;100.00
21960;BME280;11144;43.030;25.108;2023-03-14T02:54:19;99364.50;;;-0.03;100.00
21960;BME280;11144;43.030;25.108;2023-03-14T02:55:55;99378.31;;;-0.13;100.00
21960;BME280;11144;43.030;25.108;2023-03-14T02:57:29;99371.38;;;-0.17;100.00
21960;BME280;11144;43.030;25.108;2023-03-14T02:59:04;99362.66;;;-0.22;100.00
21960;BME280;11144;43.030;25.108;2023-03-14T03:00:47;99359.16;;;-0.28;100.00
21960;BME280;11144;43.030;25.108;2023-03-14T03:02:22;99368.69;;;-0.26;100.00
21960;BME280;11144;43.030;25.108;2023-03-14T03:03:56;99363.47;;;-0.26;100.00
21960;BME280;11144;43.030;25.108;2023-03-14T03:05:29;99360.88;;;-0.26;100.00
21960;BME280;11144;43.030;25.108;2023-03-14T03:07:04;99353.84;;;-0.42;100.00
21960;BME280;11144;43.030;25.108;2023-03-14T03:08:37;99350.34;;;-0.44;100.00
21960;BME280;11144;43.030;25.108;2023-03-14T03:10:11;99356.44;;;-0.42;100.00
21960;BME280;11144;43.030;25.108;2023-03-14T03:11:45;99349.53;;;-0.38;100.00
21960;BME280;11144;43.030;25.108;2023-03-14T03:13:23;99351.28;;;-0.36;100.00
21960;BME280;11144;43.030;25.108;2023-03-14T03:15:00;99353.88;;;-0.36;100.00
21960;BME280;11144;43.030;25.108;2023-03-14T03:16:33;99343.50;;;-0.36;100.00
21960;BME280;11144;43.030;25.108;2023-03-14T03:18:07;99350.47;;;-0.29;100.00
21960;BME280;11144;43.030;25.108;2023-03-14T03:19:40;99353.09;;;-0.27;100.00
21960;BME280;11144;43.030;25.108;2023-03-14T03:21:15;99352.22;;;-0.25;100.00
21960;BME280;11144;43.030;25.108;2023-03-14T03:22:49;99354.00;;;-0.22;100.00
21960;BME280;11144;43.030;25.108;2023-03-14T03:24:22;99347.09;;;-0.19;100.00
21960;BME280;11144;43.030;25.108;2023-03-14T03:25:55;99354.91;;;-0.17;100.00
21960;BME280;11144;43.030;25.108;2023-03-14T03:27:29;99343.59;;;-0.24;100.00
21960;BME280;11144;43.030;25.108;2023-03-14T03:29:03;99347.03;;;-0.28;100.00
21960;BME280;11144;43.030;25.108;2023-03-14T03:30:41;99340.06;;;-0.33;100.00
21960;BME280;11144;43.030;25.108;2023-03-14T03:32:15;99341.72;;;-0.40;100.00
21960;BME280;11144;43.030;25.108;2023-03-14T03:33:48;99341.63;;;-0.55;100.00
21960;BME280;11144;43.030;25.108;2023-03-14T03:35:22;99333.75;;;-0.65;100.00
21960;BME280;11144;43.030;25.108;2023-03-14T03:36:55;99332.91;;;-0.63;100.00
21960;BME280;11144;43.030;25.108;2023-03-14T03:38:30;99337.25;;;-0.60;100.00
21960;BME280;11144;43.030;25.108;2023-03-14T03:40:07;99336.44;;;-0.55;100.00
21960;BME280;11144;43.030;25.108;2023-03-14T03:41:41;99333.00;;;-0.49;100.00
21960;BME280;11144;43.030;25.108;2023-03-14T03:43:15;99338.25;;;-0.45;100.00
21960;BME280;11144;43.030;25.108;2023-03-14T03:44:50;99333.94;;;-0.44;100.00
21960;BME280;11144;43.030;25.108;2023-03-14T03:46:25;99335.66;;;-0.45;100.00
21960;BME280;11144;43.030;25.108;2023-03-14T03:47:58;99331.31;;;-0.46;100.00
21960;BME280;11144;43.030;25.108;2023-03-14T03:49:32;99333.06;;;-0.45;100.00
21960;BME280;11144;43.030;25.108;2023-03-14T03:51:06;99336.56;;;-0.37;100.00
21960;BME280;11144;43.030;25.108;2023-03-14T03:52:41;99338.31;;;-0.33;100.00
21960;BME280;11144;43.030;25.108;2023-03-14T03:54:14;99336.59;;;-0.34;100.00
21960;BME280;11144;43.030;25.108;2023-03-14T03:55:47;99343.53;;;-0.33;100.00
21960;BME280;11144;43.030;25.108;2023-03-14T03:57:21;99341.81;;;-0.31;100.00
21960;BME280;11144;43.030;25.108;2023-03-14T03:58:54;99340.06;;;-0.32;100.00
21960;BME280;11144;43.030;25.108;2023-03-14T04:00:28;99326.19;;;-0.37;100.00
21960;BME280;11144;43.030;25.108;2023-03-14T04:02:04;99330.53;;;-0.34;100.00
21960;BME280;11144;43.030;25.108;2023-03-14T04:03:38;99324.44;;;-0.41;100.00
21960;BME280;11144;43.030;25.108;2023-03-14T04:05:12;99314.81;;;-0.52;100.00
21960;BME280;11144;43.030;25.108;2023-03-14T04:06:52;99299.94;;;-0.73;100.00
21960;BME280;11144;43.030;25.108;2023-03-14T04:08:26;99305.03;;;-0.85;100.00
21960;BME280;11144;43.030;25.108;2023-03-14T04:09:58;99296.34;;;-0.90;100.00
21960;BME280;11144;43.030;25.108;2023-03-14T04:11:57;99301.50;;;-0.93;100.00
21960;BME280;11144;43.030;25.108;2023-03-14T04:13:40;99295.38;;;-1.01;100.00
21960;BME280;11144;43.030;25.108;2023-03-14T04:15:13;99303.19;;;-0.96;100.00
21960;BME280;11144;43.030;25.108;2023-03-14T04:16:51;99292.81;;;-0.96;100.00
21960;BME280;11144;43.030;25.108;2023-03-14T04:18:26;99297.91;;;-1.07;100.00
21960;BME280;11144;43.030;25.108;2023-03-14T04:20:02;99290.88;;;-1.20;100.00
21960;BME280;11144;43.030;25.108;2023-03-14T04:21:40;99297.75;;;-1.23;100.00
21960;BME280;11144;43.030;25.108;2023-03-14T04:23:23;99297.72;;;-1.25;100.00
21960;BME280;11144;43.030;25.108;2023-03-14T04:24:57;99289.13;;;-1.21;100.00
21960;BME280;11144;43.030;25.108;2023-03-14T04:26:30;99293.38;;;-1.29;100.00
21960;BME280;11144;43.030;25.108;2023-03-14T04:28:03;99291.69;;;-1.24;100.00
21960;BME280;11144;43.030;25.108;2023-03-14T04:29:37;99278.72;;;-1.24;100.00
21960;BME280;11144;43.030;25.108;2023-03-14T04:31:12;99289.25;;;-1.12;100.00
21960;BME280;11144;43.030;25.108;2023-03-14T04:32:46;99292.75;;;-1.04;100.00
21960;BME280;11144;43.030;25.108;2023-03-14T04:34:21;99285.88;;;-1.00;100.00
21960;BME280;11144;43.030;25.108;2023-03-14T04:35:57;99291.09;;;-0.97;100.00
21960;BME280;11144;43.030;25.108;2023-03-14T04:37:31;99281.59;;;-0.97;100.00
21960;BME280;11144;43.030;25.108;2023-03-14T04:39:04;99295.44;;;-0.93;100.00
21960;BME280;11144;43.030;25.108;2023-03-14T04:40:39;99288.50;;;-0.96;100.00
21960;BME280;11144;43.030;25.108;2023-03-14T04:42:13;99284.22;;;-0.91;100.00
21960;BME280;11144;43.030;25.108;2023-03-14T04:43:47;99284.19;;;-0.95;100.00
21960;BME280;11144;43.030;25.108;2023-03-14T04:45:19;99287.59;;;-1.01;100.00
21960;BME280;11144;43.030;25.108;2023-03-14T04:46:53;99277.19;;;-1.04;100.00
21960;BME280;11144;43.030;25.108;2023-03-14T04:48:27;99283.16;;;-1.14;100.00
21960;BME280;11144;43.030;25.108;2023-03-14T04:50:03;99287.44;;;-1.19;100.00
21960;BME280;11144;43.030;25.108;2023-03-14T04:51:38;99280.41;;;-1.29;100.00
21960;BME280;11144;43.030;25.108;2023-03-14T04:53:12;99283.09;;;-1.21;100.00
21960;BME280;11144;43.030;25.108;2023-03-14T04:54:48;99290.94;;;-1.14;100.00
21960;BME280;11144;43.030;25.108;2023-03-14T04:56:22;99290.13;;;-1.07;100.00
21960;BME280;11144;43.030;25.108;2023-03-14T04:57:56;99285.84;;;-1.02;100.00
21960;BME280;11144;43.030;25.108;2023-03-14T04:59:29;99278.94;;;-1.03;100.00
21960;BME280;11144;43.030;25.108;2023-03-14T05:01:10;99278.06;;;-1.05;100.00
21960;BME280;11144;43.030;25.108;2023-03-14T05:02:43;99278.06;;;-1.05;100.00
21960;BME280;11144;43.030;25.108;2023-03-14T05:04:30;99280.66;;;-1.05;100.00
21960;BME280;11144;43.030;25.108;2023-03-14T05:06:44;99288.38;;;-1.09;100.00
21960;BME280;11144;43.030;25.108;2023-03-14T05:08:40;99299.59;;;-1.12;100.00
21960;BME280;11144;43.030;25.108;2023-03-14T05:10:25;99296.13;;;-1.14;100.00
21960;BME280;11144;43.030;25.108;2023-03-14T05:12:13;99289.28;;;-1.09;100.00
21960;BME280;11144;43.030;25.108;2023-03-14T05:14:07;99289.34;;;-1.00;100.00
21960;BME280;11144;43.030;25.108;2023-03-14T05:16:04;99273.84;;;-0.91;100.00
21960;BME280;11144;43.030;25.108;2023-03-14T05:17:50;99291.44;;;-0.54;100.00
21960;BME280;11144;43.030;25.108;2023-03-14T05:19:42;99291.75;;;-0.10;100.00
21960;BME280;11144;43.030;25.108;2023-03-14T05:21:39;99276.28;;;0.19;100.00
21960;BME280;11144;43.030;25.108;2023-03-14T05:23:42;99279.03;;;0.59;100.00
21960;BME280;11144;43.030;25.108;2023-03-14T05:25:38;99268.72;;;1.16;100.00
21960;BME280;11144;43.030;25.108;2023-03-14T05:27:38;99279.09;;;1.67;100.00
21960;BME280;11144;43.030;25.108;2023-03-14T05:29:27;99283.31;;;2.21;100.00
21960;BME280;11144;43.030;25.108;2023-03-14T05:31:19;99264.72;;;2.82;100.00
21960;BME280;11144;43.030;25.108;2023-03-14T05:33:13;99267.00;;;3.29;100.00
21960;BME280;11144;43.030;25.108;2023-03-14T05:35:22;99265.00;;;3.56;100.00
21960;BME280;11144;43.030;25.108;2023-03-14T05:37:10;99267.50;;;3.70;100.00
21960;BME280;11144;43.030;25.108;2023-03-14T05:39:08;99274.38;;;3.79;100.00
21960;BME280;11144;43.030;25.108;2023-03-14T05:41:01;99260.72;;;3.49;100.00
21960;BME280;11144;43.030;25.108;2023-03-14T05:42:57;99265.09;;;3.49;100.00
21960;BME280;11144;43.030;25.108;2023-03-14T05:44:57;99270.97;;;3.75;100.00
21960;BME280;11144;43.030;25.108;2023-03-14T05:46:56;99273.06;;;4.20;100.00
21960;BME280;11144;43.030;25.108;2023-03-14T05:48:48;99267.41;;;4.56;100.00
21960;BME280;11144;43.030;25.108;2023-03-14T05:50:57;99262.19;;;4.53;100.00
21960;BME280;11144;43.030;25.108;2023-03-14T05:52:57;99269.59;;;4.18;100.00
21960;BME280;11144;43.030;25.108;2023-03-14T05:54:58;99270.03;;;3.79;100.00
21960;BME280;11144;43.030;25.108;2023-03-14T05:56:51;99264.19;;;3.54;100.00
21960;BME280;11144;43.030;25.108;2023-03-14T05:58:50;99259.03;;;3.45;100.00
21960;BME280;11144;43.030;25.108;2023-03-14T06:00:30;99266.81;;;3.50;100.00
21960;BME280;11144;43.030;25.108;2023-03-14T06:02:19;99263.22;;;3.63;100.00
21960;BME280;11144;43.030;25.108;2023-03-14T06:04:05;99254.44;;;3.67;100.00
21960;BME280;11144;43.030;25.108;2023-03-14T06:05:38;99265.66;;;3.80;100.00
21960;BME280;11144;43.030;25.108;2023-03-14T06:07:12;99271.63;;;3.92;100.00
21960;BME280;11144;43.030;25.108;2023-03-14T06:08:45;99271.56;;;4.01;100.00
21960;BME280;11144;43.030;25.108;2023-03-14T06:10:20;99265.19;;;4.23;100.00
21960;BME280;11144;43.030;25.108;2023-03-14T06:11:53;99269.31;;;4.42;100.00
21960;BME280;11144;43.030;25.108;2023-03-14T06:13:27;99268.22;;;4.58;100.00
21960;BME280;11144;43.030;25.108;2023-03-14T06:15:00;99262.06;;;4.62;100.00
21960;BME280;11144;43.030;25.108;2023-03-14T06:16:34;99262.09;;;4.59;100.00
21960;BME280;11144;43.030;25.108;2023-03-14T06:18:08;99261.16;;;4.65;100.00
21960;BME280;11144;43.030;25.108;2023-03-14T06:19:42;99255.06;;;4.64;100.00
21960;BME280;11144;43.030;25.108;2023-03-14T06:21:17;99260.91;;;4.81;100.00
21960;BME280;11144;43.030;25.108;2023-03-14T06:22:52;99260.56;;;5.05;100.00
21960;BME280;11144;43.030;25.108;2023-03-14T06:24:26;99256.72;;;5.29;100.00
21960;BME280;11144;43.030;25.108;2023-03-14T06:26:01;99266.06;;;5.43;100.00
21960;BME280;11144;43.030;25.108;2023-03-14T06:27:34;99272.03;;;5.53;100.00
21960;BME280;11144;43.030;25.108;2023-03-14T06:29:07;99272.16;;;5.47;100.00
21960;BME280;11144;43.030;25.108;2023-03-14T06:30:41;99266.22;;;5.36;100.00
21960;BME280;11144;43.030;25.108;2023-03-14T06:32:16;99259.56;;;5.67;100.00
21960;BME280;11144;43.030;25.108;2023-03-14T06:33:50;99260.66;;;6.04;100.00
21960;BME280;11144;43.030;25.108;2023-03-14T06:35:24;99254.16;;;6.21;100.00
21960;BME280;11144;43.030;25.108;2023-03-14T06:36:58;99257.22;;;6.44;100.00
21960;BME280;11144;43.030;25.108;2023-03-14T06:38:31;99254.25;;;6.61;100.00
21960;BME280;11144;43.030;25.108;2023-03-14T06:40:05;99250.91;;;6.92;100.00
21960;BME280;11144;43.030;25.108;2023-03-14T06:41:56;99257.59;;;7.05;100.00
21960;BME280;11144;43.030;25.108;2023-03-14T06:43:30;99252.88;;;7.21;100.00
21960;BME280;11144;43.030;25.108;2023-03-14T06:45:04;99250.78;;;7.35;100.00
21960;BME280;11144;43.030;25.108;2023-03-14T06:46:37;99251.25;;;7.51;100.00
21960;BME280;11144;43.030;25.108;2023-03-14T06:48:11;99251.41;;;7.78;100.00
21960;BME280;11144;43.030;25.108;2023-03-14T06:49:51;99247.28;;;8.02;100.00
21960;BME280;11144;43.030;25.108;2023-03-14T06:51:24;99234.84;;;8.39;100.00
21960;BME280;11144;43.030;25.108;2023-03-14T06:52:58;99236.44;;;8.73;100.00
21960;BME280;11144;43.030;25.108;2023-03-14T06:54:32;99238.69;;;9.14;100.00
21960;BME280;11144;43.030;25.108;2023-03-14T06:56:06;99234.50;;;9.61;100.00
21960;BME280;11144;43.030;25.108;2023-03-14T06:57:42;99227.75;;;10.03;100.00
21960;BME280;11144;43.030;25.108;2023-03-14T06:59:16;99229.69;;;10.47;100.00
21960;BME280;11144;43.030;25.108;2023-03-14T07:00:52;99215.53;;;10.94;100.00
21960;BME280;11144;43.030;25.108;2023-03-14T07:02:30;99227.22;;;11.32;100.00
21960;BME280;11144;43.030;25.108;2023-03-14T07:04:23;99226.75;;;11.44;100.00
21960;BME280;11144;43.030;25.108;2023-03-14T07:05:56;99221.78;;;11.56;100.00
21960;BME280;11144;43.030;25.108;2023-03-14T07:07:30;99217.34;;;11.78;100.00
21960;BME280;11144;43.030;25.108;2023-03-14T07:09:03;99208.63;;;12.16;100.00
21960;BME280;11144;43.030;25.108;2023-03-14T07:10:40;99206.88;;;12.15;100.00
21960;BME280;11144;43.030;25.108;2023-03-14T07:12:13;99213.47;;;12.07;100.00
21960;BME280;11144;43.030;25.108;2023-03-14T07:13:48;99215.63;;;11.77;100.00
21960;BME280;11144;43.030;25.108;2023-03-14T07:15:21;99208.50;;;11.79;100.00
21960;BME280;11144;43.030;25.108;2023-03-14T07:17:00;99210.88;;;11.65;100.00
21960;BME280;11144;43.030;25.108;2023-03-14T07:18:34;99214.91;;;11.52;100.00
21960;BME280;11144;43.030;25.108;2023-03-14T07:20:10;99198.41;;;11.46;100.00
21960;BME280;11144;43.030;25.108;2023-03-14T07:21:44;99201.09;;;11.24;100.00
21960;BME280;11144;43.030;25.108;2023-03-14T07:23:19;99195.81;;;11.01;100.00
21960;BME280;11144;43.030;25.108;2023-03-14T07:24:55;99193.34;;;10.75;100.00
21960;BME280;11144;43.030;25.108;2023-03-14T07:26:29;99184.97;;;10.64;100.00
21960;BME280;11144;43.030;25.108;2023-03-14T07:28:04;99187.97;;;10.55;100.00
21960;BME280;11144;43.030;25.108;2023-03-14T07:29:39;99186.00;;;10.14;100.00
21960;BME280;11144;43.030;25.108;2023-03-14T07:31:13;99179.59;;;10.21;100.00
21960;BME280;11144;43.030;25.108;2023-03-14T07:32:46;99185.34;;;10.32;100.00
21960;BME280;11144;43.030;25.108;2023-03-14T07:34:20;99183.56;;;10.56;100.00
21960;BME280;11144;43.030;25.108;2023-03-14T07:35:54;99184.13;;;10.64;100.00
21960;BME280;11144;43.030;25.108;2023-03-14T07:37:27;99176.47;;;10.79;100.00
21960;BME280;11144;43.030;25.108;2023-03-14T07:39:02;99179.09;;;10.79;100.00
21960;BME280;11144;43.030;25.108;2023-03-14T07:41:00;99166.00;;;10.53;100.00
21960;BME280;11144;43.030;25.108;2023-03-14T07:42:36;99167.75;;;10.54;100.00
21960;BME280;11144;43.030;25.108;2023-03-14T07:44:35;99169.13;;;10.41;100.00
21960;BME280;11144;43.030;25.108;2023-03-14T07:46:10;99163.25;;;10.56;100.00
21960;BME280;11144;43.030;25.108;2023-03-14T07:47:43;99160.16;;;10.68;100.00
21960;BME280;11144;43.030;25.108;2023-03-14T07:49:16;99162.09;;;10.63;100.00
21960;BME280;11144;43.030;25.108;2023-03-14T07:50:49;99153.88;;;10.71;100.00
21960;BME280;11144;43.030;25.108;2023-03-14T07:52:23;99155.84;;;10.87;100.00
21960;BME280;11144;43.030;25.108;2023-03-14T07:53:56;99156.34;;;10.97;100.00
21960;BME280;11144;43.030;25.108;2023-03-14T07:55:29;99153.25;;;11.07;100.00
21960;BME280;11144;43.030;25.108;2023-03-14T07:57:03;99147.88;;;11.30;100.00
21960;BME280;11144;43.030;25.108;2023-03-14T07:58:36;99142.00;;;11.65;100.00
21960;BME280;11144;43.030;25.108;2023-03-14T08:00:10;99134.44;;;11.76;100.00
21960;BME280;11144;43.030;25.108;2023-03-14T08:01:48;99135.59;;;12.09;100.00
21960;BME280;11144;43.030;25.108;2023-03-14T08:03:21;99139.19;;;11.88;100.00
21960;BME280;11144;43.030;25.108;2023-03-14T08:04:54;99144.31;;;12.31;100.00
21960;BME280;11144;43.030;25.108;2023-03-14T08:06:28;99138.00;;;12.89;100.00
21960;BME280;11144;43.030;25.108;2023-03-14T08:08:01;99130.09;;;13.06;100.00
21960;BME280;11144;43.030;25.108;2023-03-14T08:09:34;99123.88;;;13.24;100.00
21960;BME280;11144;43.030;25.108;2023-03-14T08:11:08;99128.00;;;13.13;98.08
21960;BME280;11144;43.030;25.108;2023-03-14T08:12:41;99124.59;;;13.45;97.67
21960;BME280;11144;43.030;25.108;2023-03-14T08:14:14;99130.31;;;13.72;96.94
21960;BME280;11144;43.030;25.108;2023-03-14T08:15:48;99117.97;;;13.71;92.78
21960;BME280;11144;43.030;25.108;2023-03-14T08:17:24;99113.50;;;13.88;91.37
21960;BME280;11144;43.030;25.108;2023-03-14T08:18:59;99120.81;;;14.00;93.27
21960;BME280;11144;43.030;25.108;2023-03-14T08:20:32;99122.66;;;14.48;93.00
21960;BME280;11144;43.030;25.108;2023-03-14T08:22:05;99124.41;;;14.49;90.84
21960;BME280;11144;43.030;25.108;2023-03-14T08:23:39;99115.28;;;14.68;87.89
21960;BME280;11144;43.030;25.108;2023-03-14T08:25:13;99111.75;;;14.99;86.01
21960;BME280;11144;43.030;25.108;2023-03-14T08:26:46;99118.53;;;15.04;82.04
21960;BME280;11144;43.030;25.108;2023-03-14T08:28:19;99110.84;;;15.00;82.33